Aviation Digital Data Service (ADDS)

Output produced by METARs form (0537 UTC 09 February 2016)
found at http://aviationweather.gov/adds/metars/
 
KMHT 090531Z 0906/1006 36007KT 2SM -SN BR OVC025 
     FM090800 36006KT 3SM -SN BR OVC035 
     FM091300 36006KT P6SM OVC025